createdAt,value
2022-10-16T00:00:55.467Z,93.70
2022-10-16T00:03:26.767Z,93.53
2022-10-16T00:06:01.019Z,93.92
2022-10-16T00:08:28.616Z,93.51
2022-10-16T00:11:09.148Z,91.93
2022-10-16T00:13:38.062Z,92.00
2022-10-16T00:16:05.566Z,93.28
2022-10-16T00:18:32.466Z,93.78
2022-10-16T00:21:27.155Z,93.17
2022-10-16T00:23:55.953Z,93.64
2022-10-16T00:26:23.632Z,93.78
2022-10-16T00:28:51.852Z,93.36
2022-10-16T00:31:20.835Z,93.97
2022-10-16T00:33:48.339Z,94.18
2022-10-16T00:36:19.112Z,94.24
2022-10-16T00:38:46.311Z,93.29
2022-10-16T00:41:16.590Z,93.88
2022-10-16T00:43:45.665Z,93.21
2022-10-16T00:46:38.652Z,93.37
2022-10-16T00:49:18.110Z,94.29
2022-10-16T00:51:51.897Z,94.52
2022-10-16T00:54:22.487Z,94.85
2022-10-16T00:56:50.457Z,95.37
2022-10-16T00:59:20.732Z,96.12
2022-10-16T01:01:47.826Z,96.50
2022-10-16T01:04:14.713Z,97.00
2022-10-16T01:06:57.310Z,97.17
2022-10-16T01:10:04.135Z,97.39
2022-10-16T01:12:44.211Z,97.26
2022-10-16T01:18:27.670Z,96.98
2022-10-16T01:21:04.170Z,97.41
2022-10-16T01:23:40.222Z,98.21
2022-10-16T01:26:14.643Z,98.62
2022-10-16T01:28:50.800Z,98.06
2022-10-16T01:31:20.146Z,99.14
2022-10-16T01:33:51.378Z,99.80
2022-10-16T01:36:26.984Z,99.94
2022-10-16T01:38:55.699Z,99.06
2022-10-16T01:41:26.628Z,99.44
2022-10-16T01:43:54.541Z,100.00
2022-10-16T01:46:22.479Z,100.00
2022-10-16T01:48:50.470Z,100.00
2022-10-16T01:51:18.259Z,100.00
2022-10-16T01:53:49.670Z,100.00
2022-10-16T01:56:18.442Z,100.00
2022-10-16T01:58:54.914Z,100.00
2022-10-16T02:01:24.565Z,100.00
2022-10-16T02:03:53.190Z,100.00
2022-10-16T02:06:20.629Z,100.00
2022-10-16T02:08:47.915Z,100.00
2022-10-16T02:11:15.051Z,100.00
2022-10-16T02:13:49.802Z,100.00
2022-10-16T02:16:16.890Z,100.00
2022-10-16T02:18:44.583Z,100.00
2022-10-16T02:21:19.018Z,100.00
2022-10-16T02:23:55.417Z,100.00
2022-10-16T02:26:32.305Z,100.00
2022-10-16T02:29:02.731Z,100.00
2022-10-16T02:31:32.710Z,100.00
2022-10-16T02:34:00.234Z,100.00
2022-10-16T02:36:28.280Z,100.00
2022-10-16T02:38:55.390Z,100.00
2022-10-16T02:41:23.198Z,100.00
2022-10-16T02:43:50.528Z,100.00
2022-10-16T02:46:18.918Z,100.00
2022-10-16T02:48:46.000Z,100.00
2022-10-16T02:51:12.995Z,100.00
2022-10-16T02:53:39.854Z,100.00
2022-10-16T02:56:07.107Z,100.00
2022-10-16T02:58:34.085Z,100.00
2022-10-16T03:01:01.077Z,100.00
2022-10-16T03:03:28.254Z,100.00
2022-10-16T03:05:55.117Z,100.00
2022-10-16T03:08:24.576Z,100.00
2022-10-16T03:10:52.282Z,100.00
2022-10-16T03:13:21.363Z,100.00
2022-10-16T03:15:48.465Z,100.00
2022-10-16T03:18:16.115Z,100.00
2022-10-16T03:20:43.994Z,100.00
2022-10-16T03:23:11.010Z,100.00
2022-10-16T03:25:38.153Z,100.00
2022-10-16T03:28:05.059Z,100.00
2022-10-16T03:30:31.940Z,100.00
2022-10-16T03:32:59.025Z,100.00
2022-10-16T03:35:25.980Z,100.00
2022-10-16T03:37:53.015Z,100.00
2022-10-16T03:40:20.133Z,100.00
2022-10-16T03:42:46.989Z,100.00
2022-10-16T03:45:13.860Z,100.00
2022-10-16T03:47:40.965Z,100.00
2022-10-16T03:50:08.388Z,100.00
2022-10-16T03:52:35.325Z,100.00
2022-10-16T03:55:02.414Z,100.00
2022-10-16T03:57:29.522Z,100.00
2022-10-16T03:59:56.617Z,100.00
2022-10-16T04:02:23.790Z,100.00
2022-10-16T04:04:51.453Z,100.00
2022-10-16T04:07:18.308Z,100.00
2022-10-16T04:09:45.154Z,100.00
2022-10-16T04:12:12.301Z,100.00
2022-10-16T04:14:39.157Z,100.00
2022-10-16T04:17:06.074Z,100.00
2022-10-16T04:19:33.190Z,100.00
2022-10-16T04:22:00.085Z,100.00
2022-10-16T04:24:26.937Z,100.00
2022-10-16T04:26:54.069Z,100.00
2022-10-16T04:29:20.954Z,100.00
2022-10-16T04:31:47.896Z,100.00
2022-10-16T04:34:15.003Z,100.00
2022-10-16T04:36:44.630Z,100.00
2022-10-16T04:39:11.469Z,100.00
2022-10-16T04:41:41.678Z,100.00
2022-10-16T04:44:11.740Z,100.00
2022-10-16T04:46:41.697Z,100.00
2022-10-16T04:49:11.304Z,100.00
2022-10-16T04:51:41.647Z,100.00
2022-10-16T04:54:11.417Z,100.00
2022-10-16T04:56:44.250Z,100.00
2022-10-16T04:59:11.163Z,100.00
2022-10-16T05:01:41.344Z,100.00
2022-10-16T05:04:11.538Z,100.00
2022-10-16T05:06:41.994Z,100.00
2022-10-16T05:09:11.670Z,100.00
2022-10-16T05:11:41.845Z,100.00
2022-10-16T05:16:43.704Z,100.00
2022-10-16T05:19:27.762Z,100.00
2022-10-16T05:21:55.567Z,100.00
2022-10-16T05:24:22.765Z,100.00
2022-10-16T05:26:49.673Z,100.00
2022-10-16T05:29:16.760Z,100.00
2022-10-16T05:31:43.638Z,100.00
2022-10-16T05:34:13.542Z,100.00
2022-10-16T05:36:43.494Z,100.00
2022-10-16T05:39:10.336Z,100.00
2022-10-16T05:41:39.409Z,100.00
2022-10-16T05:44:08.015Z,100.00
2022-10-16T05:46:34.947Z,100.00
2022-10-16T05:49:01.898Z,100.00
2022-10-16T05:51:29.026Z,100.00
2022-10-16T05:53:55.915Z,100.00
2022-10-16T05:56:22.823Z,100.00
2022-10-16T05:58:49.958Z,100.00
2022-10-16T06:01:18.647Z,100.00
2022-10-16T06:03:46.126Z,100.00
2022-10-16T06:06:21.255Z,98.96
2022-10-16T06:08:49.403Z,96.33
2022-10-16T06:11:18.705Z,86.58
2022-10-16T06:13:46.913Z,80.43
2022-10-16T06:16:14.184Z,75.64
2022-10-16T06:18:41.343Z,73.04
2022-10-16T06:21:10.722Z,68.30
2022-10-16T06:23:38.434Z,67.31
2022-10-16T06:26:16.933Z,65.26
2022-10-16T06:28:44.159Z,65.97
2022-10-16T06:31:12.406Z,65.34
2022-10-16T06:33:40.268Z,60.05
2022-10-16T06:36:12.625Z,57.56
2022-10-16T06:38:39.834Z,55.91
2022-10-16T06:41:08.235Z,55.78
2022-10-16T06:43:38.238Z,57.98
2022-10-16T06:46:08.677Z,59.92
2022-10-16T06:48:36.261Z,56.40
2022-10-16T06:51:20.702Z,55.93
2022-10-16T06:54:08.209Z,57.42
2022-10-16T06:56:35.740Z,62.58
2022-10-16T06:59:03.370Z,59.15
2022-10-16T07:01:31.214Z,58.81
2022-10-16T07:03:58.473Z,55.28
2022-10-16T07:06:26.505Z,52.82
2022-10-16T07:08:53.473Z,51.47
2022-10-16T07:11:22.397Z,53.21
2022-10-16T07:13:54.569Z,53.97
2022-10-16T07:16:25.729Z,51.13
2022-10-16T07:19:01.191Z,50.26
2022-10-16T07:21:30.997Z,50.26
2022-10-16T07:24:00.144Z,48.64
2022-10-16T07:26:28.116Z,50.29
2022-10-16T07:28:55.204Z,49.00
2022-10-16T07:31:22.481Z,50.15
2022-10-16T07:33:50.487Z,50.38
2022-10-16T07:36:18.953Z,50.46
2022-10-16T07:38:46.103Z,50.96
2022-10-16T07:41:18.543Z,54.57
2022-10-16T07:43:52.967Z,53.92
2022-10-16T07:46:21.752Z,54.66
2022-10-16T07:48:49.273Z,52.81
2022-10-16T07:51:18.927Z,52.28
2022-10-16T07:53:46.660Z,53.88
2022-10-16T07:56:13.602Z,54.76
2022-10-16T07:58:40.660Z,56.03
2022-10-16T08:01:09.863Z,56.88
2022-10-16T08:03:37.152Z,56.61
2022-10-16T08:06:04.767Z,56.89
2022-10-16T08:08:31.694Z,55.51
2022-10-16T08:10:58.812Z,55.15
2022-10-16T08:13:25.692Z,60.22
2022-10-16T08:15:54.832Z,62.18
2022-10-16T08:18:21.957Z,59.42
2022-10-16T08:20:48.805Z,58.59
2022-10-16T08:23:15.744Z,60.56
2022-10-16T08:25:42.891Z,63.13
2022-10-16T08:28:11.730Z,64.31
2022-10-16T08:30:38.831Z,65.43
2022-10-16T08:33:06.950Z,63.14
2022-10-16T08:35:34.257Z,62.30
2022-10-16T08:38:01.118Z,62.42
2022-10-16T08:40:34.229Z,61.94
2022-10-16T08:43:06.910Z,60.18
2022-10-16T08:45:40.002Z,61.23
2022-10-16T08:48:16.258Z,56.98
2022-10-16T08:50:44.703Z,55.04
2022-10-16T08:53:25.738Z,61.59
2022-10-16T08:55:54.106Z,57.95
2022-10-16T08:58:23.633Z,56.02
2022-10-16T09:00:55.539Z,60.18
2022-10-16T09:03:38.242Z,62.11
2022-10-16T09:06:29.549Z,59.23
2022-10-16T09:09:24.726Z,56.52
2022-10-16T09:12:02.719Z,52.71
2022-10-16T09:14:48.264Z,48.28
2022-10-16T09:17:45.218Z,48.82
2022-10-16T09:20:29.300Z,52.17
2022-10-16T09:23:17.618Z,50.56
2022-10-16T09:25:50.079Z,50.56
2022-10-16T09:28:18.485Z,47.62
2022-10-16T09:30:46.441Z,47.45
2022-10-16T09:33:14.966Z,53.61
2022-10-16T09:35:45.168Z,58.29
2022-10-16T09:38:36.850Z,59.18
2022-10-16T09:41:22.472Z,63.28
2022-10-16T09:43:55.490Z,65.77
2022-10-16T09:46:27.218Z,65.58
2022-10-16T09:48:57.208Z,66.36
2022-10-16T09:51:36.365Z,66.04
2022-10-16T09:54:21.045Z,64.76
2022-10-16T09:56:52.838Z,65.23
2022-10-16T09:59:22.143Z,67.61
2022-10-16T10:01:53.892Z,67.63
2022-10-16T10:04:23.101Z,67.44
2022-10-16T10:06:55.379Z,65.92
2022-10-16T10:09:25.210Z,66.37
2022-10-16T10:11:56.137Z,65.14
2022-10-16T10:15:00.538Z,66.36
2022-10-16T10:17:29.218Z,65.83
2022-10-16T10:20:04.069Z,65.08
2022-10-16T10:22:39.978Z,64.56
2022-10-16T10:25:12.674Z,64.62
2022-10-16T10:28:06.724Z,65.12
2022-10-16T10:31:09.061Z,65.91
2022-10-16T10:33:55.817Z,66.29
2022-10-16T10:36:36.095Z,63.77
2022-10-16T10:39:16.904Z,65.32
2022-10-16T10:42:13.122Z,63.76
2022-10-16T10:45:20.083Z,63.48
2022-10-16T10:48:20.694Z,63.96
2022-10-16T10:50:55.823Z,63.58
2022-10-16T10:53:52.182Z,63.42
2022-10-16T10:56:40.224Z,63.73
2022-10-16T10:59:42.906Z,62.91
2022-10-16T11:02:23.132Z,62.45
2022-10-16T11:05:13.558Z,62.79
2022-10-16T11:07:54.082Z,63.65
2022-10-16T11:10:32.002Z,61.63
2022-10-16T11:13:24.959Z,61.56
2022-10-16T11:15:55.186Z,61.54
2022-10-16T11:18:45.380Z,61.39
2022-10-16T11:21:14.407Z,60.10
2022-10-16T11:23:57.787Z,59.66
2022-10-16T11:26:28.596Z,59.70
2022-10-16T11:28:57.514Z,60.48
2022-10-16T11:31:31.178Z,60.66
2022-10-16T11:34:16.028Z,60.21
2022-10-16T11:36:52.651Z,60.48
2022-10-16T11:39:22.350Z,59.27
2022-10-16T11:41:52.786Z,59.58
2022-10-16T11:44:40.999Z,59.82
2022-10-16T11:47:46.456Z,59.22
2022-10-16T11:50:21.913Z,59.45
2022-10-16T11:53:14.614Z,58.66
2022-10-16T11:55:46.796Z,59.22
2022-10-16T11:58:27.680Z,58.00
2022-10-16T12:01:06.739Z,57.77
2022-10-16T12:04:00.961Z,58.22
2022-10-16T12:06:51.881Z,58.47
2022-10-16T12:09:30.839Z,58.11
2022-10-16T12:11:58.137Z,58.04
2022-10-16T12:14:51.700Z,57.22
2022-10-16T12:17:35.559Z,57.57
2022-10-16T12:20:22.088Z,56.93
2022-10-16T12:22:59.759Z,56.37
2022-10-16T12:25:35.250Z,56.57
2022-10-16T12:28:06.027Z,57.44
2022-10-16T12:30:36.612Z,58.09
2022-10-16T12:33:04.760Z,57.51
2022-10-16T12:35:35.080Z,57.34
2022-10-16T12:38:20.991Z,58.16
2022-10-16T12:40:58.876Z,58.37
2022-10-16T12:43:35.570Z,57.76
2022-10-16T12:46:05.593Z,58.85
2022-10-16T12:48:42.474Z,57.91
2022-10-16T12:51:35.619Z,56.61
2022-10-16T12:54:16.289Z,57.19
2022-10-16T12:56:58.233Z,57.73
2022-10-16T13:00:10.746Z,56.33
2022-10-16T13:02:50.901Z,56.58
2022-10-16T13:05:25.337Z,57.78
2022-10-16T13:08:07.198Z,56.95
2022-10-16T13:10:45.483Z,57.13
2022-10-16T13:13:30.778Z,56.26
2022-10-16T13:16:00.882Z,56.19
2022-10-16T13:18:39.677Z,55.97
2022-10-16T13:21:19.016Z,56.30
2022-10-16T13:23:58.293Z,57.21
2022-10-16T13:26:51.624Z,56.07
2022-10-16T13:29:19.634Z,56.72
2022-10-16T13:31:46.794Z,55.70
2022-10-16T13:34:22.734Z,55.73
2022-10-16T13:36:53.750Z,55.57
2022-10-16T13:39:25.940Z,55.59
2022-10-16T13:42:27.023Z,55.57
2022-10-16T13:44:57.082Z,55.71
2022-10-16T13:47:29.606Z,55.59
2022-10-16T13:50:10.642Z,55.37
2022-10-16T13:52:39.087Z,55.63
2022-10-16T13:55:17.532Z,55.92
2022-10-16T13:57:44.803Z,56.02
2022-10-16T14:00:30.887Z,56.08
2022-10-16T14:03:13.914Z,55.05
2022-10-16T14:05:49.389Z,54.78
2022-10-16T14:08:16.622Z,55.39
2022-10-16T14:10:43.572Z,55.78
2022-10-16T14:13:18.017Z,54.75
2022-10-16T14:15:48.625Z,55.66
2022-10-16T14:18:19.975Z,55.66
2022-10-16T14:20:47.186Z,55.26
2022-10-16T14:23:29.849Z,55.73
2022-10-16T14:26:14.122Z,54.35
2022-10-16T14:28:42.212Z,54.53
2022-10-16T14:31:25.990Z,54.32
2022-10-16T14:33:54.077Z,53.31
2022-10-16T14:36:22.863Z,53.74
2022-10-16T14:39:18.788Z,53.86
2022-10-16T14:41:48.063Z,54.47
2022-10-16T14:44:15.446Z,54.77
2022-10-16T14:46:45.953Z,55.27
2022-10-16T14:49:19.379Z,55.97
2022-10-16T14:51:46.988Z,56.58
2022-10-16T14:54:18.966Z,56.56
2022-10-16T14:56:54.625Z,55.20
2022-10-16T14:59:40.884Z,56.51
2022-10-16T15:02:21.168Z,55.44
2022-10-16T15:04:48.509Z,56.28
2022-10-16T15:07:15.779Z,56.75
2022-10-16T15:09:48.025Z,56.76
2022-10-16T15:12:17.165Z,56.64
2022-10-16T15:14:44.391Z,57.65
2022-10-16T15:17:11.941Z,57.85
2022-10-16T15:19:39.204Z,57.90
2022-10-16T15:22:06.114Z,58.03
2022-10-16T15:24:32.999Z,58.45
2022-10-16T15:27:00.165Z,58.54
2022-10-16T15:29:27.007Z,59.02
2022-10-16T15:31:53.882Z,59.57
2022-10-16T15:34:21.061Z,60.10
2022-10-16T15:36:47.909Z,60.45
2022-10-16T15:39:17.065Z,61.45
2022-10-16T15:41:46.179Z,62.45
2022-10-16T15:44:13.043Z,63.18
2022-10-16T15:46:42.894Z,64.21
2022-10-16T15:49:13.168Z,64.74
2022-10-16T15:51:43.579Z,65.81
2022-10-16T15:54:10.787Z,66.64
2022-10-16T15:56:38.171Z,67.94
2022-10-16T15:59:10.420Z,69.90
2022-10-16T16:01:37.636Z,71.56
2022-10-16T16:04:15.330Z,72.63
2022-10-16T16:06:47.281Z,73.53
2022-10-16T16:09:15.335Z,74.00
2022-10-16T16:11:45.006Z,75.91
2022-10-16T16:14:15.344Z,76.74
2022-10-16T16:16:43.079Z,77.72
2022-10-16T16:19:12.777Z,79.36
2022-10-16T16:21:42.546Z,81.12
2022-10-16T16:24:12.424Z,82.01
2022-10-16T16:26:44.468Z,82.23
2022-10-16T16:29:16.094Z,83.00
2022-10-16T16:31:43.434Z,84.07
2022-10-16T16:34:10.571Z,85.04
2022-10-16T16:36:37.768Z,85.69
2022-10-16T16:39:04.894Z,86.13
2022-10-16T16:41:31.980Z,86.65
2022-10-16T16:44:07.762Z,87.43
2022-10-16T16:46:34.970Z,88.24
2022-10-16T16:49:02.981Z,88.58
2022-10-16T16:51:29.909Z,89.44
2022-10-16T16:53:57.180Z,89.51
2022-10-16T16:56:25.090Z,90.19
2022-10-16T16:58:55.077Z,90.54
2022-10-16T17:01:22.801Z,91.02
2022-10-16T17:03:52.618Z,91.32
2022-10-16T17:06:21.843Z,91.71
2022-10-16T17:08:49.781Z,91.91
2022-10-16T17:11:22.667Z,91.91
2022-10-16T17:13:53.884Z,93.54
2022-10-16T17:16:29.918Z,93.64
2022-10-16T17:18:57.134Z,94.08
2022-10-16T17:21:24.314Z,94.25
2022-10-16T17:23:53.030Z,94.82
2022-10-16T17:26:19.955Z,95.63
2022-10-16T17:28:47.150Z,95.50
2022-10-16T17:31:16.850Z,95.74
2022-10-16T17:33:44.694Z,96.33
2022-10-16T17:36:14.606Z,95.88
2022-10-16T17:38:42.791Z,96.85
2022-10-16T17:41:22.470Z,97.43
2022-10-16T17:43:50.160Z,97.95
2022-10-16T17:46:18.877Z,98.30
2022-10-16T17:48:48.286Z,99.00
2022-10-16T17:51:20.818Z,98.57
2022-10-16T17:53:52.523Z,98.28
2022-10-16T17:56:20.199Z,98.69
2022-10-16T17:58:51.731Z,99.64
2022-10-16T18:01:24.941Z,100.00
2022-10-16T18:03:57.676Z,100.00
2022-10-16T18:06:25.154Z,100.00
2022-10-16T18:08:53.417Z,100.00
2022-10-16T18:11:21.850Z,100.00
2022-10-16T18:13:48.737Z,100.00
2022-10-16T18:16:16.181Z,100.00
2022-10-16T18:18:44.887Z,100.00
2022-10-16T18:21:13.941Z,100.00
2022-10-16T18:23:41.581Z,100.00
2022-10-16T18:26:10.237Z,100.00
2022-10-16T18:28:37.520Z,100.00
2022-10-16T18:31:07.317Z,100.00
2022-10-16T18:33:34.253Z,100.00
2022-10-16T18:36:09.170Z,100.00
2022-10-16T18:38:37.185Z,100.00
2022-10-16T18:41:05.752Z,100.00
2022-10-16T18:43:37.557Z,100.00
2022-10-16T18:46:07.777Z,100.00
2022-10-16T18:48:35.004Z,100.00
2022-10-16T18:51:19.555Z,100.00
2022-10-16T18:53:49.418Z,100.00
2022-10-16T18:56:17.508Z,100.00
2022-10-16T18:58:45.926Z,100.00
2022-10-16T19:01:16.285Z,100.00
2022-10-16T19:03:43.979Z,100.00
2022-10-16T19:06:14.348Z,100.00
2022-10-16T19:08:41.589Z,100.00
2022-10-16T19:11:11.558Z,100.00
2022-10-16T19:13:38.614Z,100.00
2022-10-16T19:16:19.717Z,100.00
2022-10-16T19:18:48.423Z,100.00
2022-10-16T19:21:16.226Z,100.00
2022-10-16T19:23:43.805Z,100.00
2022-10-16T19:26:16.196Z,100.00
2022-10-16T19:28:44.299Z,100.00
2022-10-16T19:31:16.700Z,100.00
2022-10-16T19:33:44.009Z,100.00
2022-10-16T19:36:13.484Z,100.00
2022-10-16T19:38:41.702Z,100.00
2022-10-16T19:41:16.762Z,100.00
2022-10-16T19:43:44.094Z,100.00
2022-10-16T19:46:18.759Z,100.00
2022-10-16T19:48:45.954Z,100.00
2022-10-16T19:51:16.343Z,100.00
2022-10-16T19:53:44.197Z,100.00
2022-10-16T19:56:21.357Z,100.00
2022-10-16T19:58:49.044Z,100.00
2022-10-16T20:01:16.780Z,100.00
2022-10-16T20:03:45.072Z,100.00
2022-10-16T20:06:12.698Z,100.00
2022-10-16T20:08:41.139Z,100.00
2022-10-16T20:11:20.182Z,100.00
2022-10-16T20:13:47.116Z,100.00
2022-10-16T20:16:17.863Z,100.00
2022-10-16T20:18:45.770Z,100.00
2022-10-16T20:21:16.537Z,100.00
2022-10-16T20:23:44.814Z,100.00
2022-10-16T20:26:11.712Z,100.00
2022-10-16T20:28:42.611Z,100.00
2022-10-16T20:31:16.010Z,100.00
2022-10-16T20:33:42.971Z,100.00
2022-10-16T20:36:14.110Z,100.00
2022-10-16T20:38:41.628Z,100.00
2022-10-16T20:41:09.117Z,100.00
2022-10-16T20:43:39.251Z,100.00
2022-10-16T20:46:08.823Z,100.00
2022-10-16T20:48:36.032Z,100.00
2022-10-16T20:51:23.221Z,100.00
2022-10-16T20:53:55.320Z,100.00
2022-10-16T20:56:23.093Z,100.00
2022-10-16T20:58:49.965Z,100.00
2022-10-16T21:01:20.858Z,100.00
2022-10-16T21:03:56.499Z,100.00
2022-10-16T21:06:24.047Z,100.00
2022-10-16T21:08:51.351Z,100.00
2022-10-16T21:11:23.173Z,100.00
2022-10-16T21:13:53.396Z,100.00
2022-10-16T21:16:20.708Z,100.00
2022-10-16T21:18:47.642Z,100.00
2022-10-16T21:21:29.039Z,100.00
2022-10-16T21:23:57.313Z,100.00
2022-10-16T21:26:28.072Z,100.00
2022-10-16T21:28:59.811Z,100.00
2022-10-16T21:31:27.454Z,100.00
2022-10-16T21:33:55.340Z,100.00
2022-10-16T21:36:24.377Z,100.00
2022-10-16T21:38:51.897Z,100.00
2022-10-16T21:41:23.859Z,100.00
2022-10-16T21:43:51.149Z,100.00
2022-10-16T21:46:19.970Z,100.00
2022-10-16T21:48:47.183Z,100.00
2022-10-16T21:51:14.748Z,100.00
2022-10-16T21:53:41.859Z,100.00
2022-10-16T21:56:16.201Z,100.00
2022-10-16T21:58:44.241Z,100.00
2022-10-16T22:01:16.578Z,100.00
2022-10-16T22:03:44.549Z,100.00
2022-10-16T22:06:12.942Z,100.00
2022-10-16T22:08:40.782Z,100.00
2022-10-16T22:11:21.508Z,100.00
2022-10-16T22:13:54.089Z,100.00
2022-10-16T22:16:27.028Z,100.00
2022-10-16T22:18:55.603Z,100.00
2022-10-16T22:21:23.000Z,100.00
2022-10-16T22:23:50.255Z,100.00
2022-10-16T22:26:17.200Z,100.00
2022-10-16T22:28:44.080Z,100.00
2022-10-16T22:31:13.326Z,100.00
2022-10-16T22:33:40.876Z,100.00
2022-10-16T22:36:10.552Z,100.00
2022-10-16T22:38:37.675Z,100.00
2022-10-16T22:41:09.716Z,100.00
2022-10-16T22:43:38.470Z,100.00
2022-10-16T22:46:08.201Z,100.00
2022-10-16T22:48:36.082Z,100.00
2022-10-16T22:51:04.767Z,100.00
2022-10-16T22:53:31.870Z,100.00
2022-10-16T22:55:58.850Z,100.00
2022-10-16T22:58:25.742Z,100.00
2022-10-16T23:00:52.983Z,100.00
2022-10-16T23:03:20.054Z,100.00
2022-10-16T23:05:46.947Z,100.00
2022-10-16T23:08:15.084Z,100.00
2022-10-16T23:10:43.866Z,100.00
2022-10-16T23:13:11.558Z,100.00
2022-10-16T23:15:43.435Z,100.00
2022-10-16T23:18:10.587Z,100.00
2022-10-16T23:20:40.729Z,100.00
2022-10-16T23:23:08.191Z,100.00
2022-10-16T23:25:35.687Z,100.00
2022-10-16T23:28:02.549Z,100.00
2022-10-16T23:30:29.709Z,100.00
2022-10-16T23:32:56.554Z,100.00
2022-10-16T23:35:23.386Z,100.00
2022-10-16T23:37:51.533Z,100.00
2022-10-16T23:40:18.780Z,100.00
2022-10-16T23:42:45.735Z,100.00
2022-10-16T23:45:12.875Z,100.00
2022-10-16T23:47:41.470Z,100.00
2022-10-16T23:50:09.593Z,100.00
2022-10-16T23:52:36.831Z,100.00
2022-10-16T23:55:04.459Z,100.00
2022-10-16T23:57:31.430Z,100.00
2022-10-16T23:59:58.749Z,100.00
